createdAt,value
2018-04-11T00:02:00.000Z,97724
2018-04-11T00:07:00.000Z,97713
2018-04-11T00:12:00.000Z,97709
2018-04-11T00:17:00.000Z,97716
2018-04-11T00:22:00.000Z,97711
2018-04-11T00:27:00.000Z,97711
2018-04-11T00:32:00.000Z,97715
2018-04-11T00:37:00.000Z,97716
2018-04-11T00:42:00.000Z,97716
2018-04-11T00:47:00.000Z,97710
2018-04-11T00:52:00.000Z,97707
2018-04-11T00:57:00.000Z,97711
2018-04-11T01:02:00.000Z,97714
2018-04-11T01:07:00.000Z,97704
2018-04-11T01:12:00.000Z,97724
2018-04-11T01:18:00.000Z,97721
2018-04-11T01:23:00.000Z,97723
2018-04-11T01:28:00.000Z,97709
2018-04-11T01:33:00.000Z,97715
2018-04-11T01:38:00.000Z,97719
2018-04-11T01:43:00.000Z,97723
2018-04-11T01:48:00.000Z,97730
2018-04-11T01:53:00.000Z,97725
2018-04-11T01:58:00.000Z,97717
2018-04-11T02:03:00.000Z,97712
2018-04-11T02:08:00.000Z,97722
2018-04-11T02:13:00.000Z,97729
2018-04-11T02:18:00.000Z,97727
2018-04-11T02:23:00.000Z,97729
2018-04-11T02:28:00.000Z,97718
2018-04-11T02:33:00.000Z,97717
2018-04-11T02:38:00.000Z,97736
2018-04-11T02:43:00.000Z,97739
2018-04-11T02:48:00.000Z,97742
2018-04-11T02:53:00.000Z,97739
2018-04-11T02:58:00.000Z,97744
2018-04-11T03:03:00.000Z,97745
2018-04-11T03:08:00.000Z,97742
2018-04-11T03:13:00.000Z,97744
2018-04-11T03:18:00.000Z,97762
2018-04-11T03:23:00.000Z,97766
2018-04-11T03:28:00.000Z,97777
2018-04-11T03:33:00.000Z,97770
2018-04-11T03:38:00.000Z,97768
2018-04-11T03:43:00.000Z,97768
2018-04-11T03:48:00.000Z,97768
2018-04-11T03:53:00.000Z,97780
2018-04-11T03:58:00.000Z,97793
2018-04-11T04:03:00.000Z,97791
2018-04-11T04:08:00.000Z,97802
2018-04-11T04:13:00.000Z,97801
2018-04-11T04:18:00.000Z,97799
2018-04-11T04:23:00.000Z,97808
2018-04-11T04:28:00.000Z,97830
2018-04-11T04:33:00.000Z,97827
2018-04-11T04:38:00.000Z,97830
2018-04-11T04:43:00.000Z,97835
2018-04-11T04:48:00.000Z,97832
2018-04-11T04:53:00.000Z,97856
2018-04-11T04:58:00.000Z,97867
2018-04-11T05:03:00.000Z,97858
2018-04-11T05:08:00.000Z,97865
2018-04-11T05:13:00.000Z,97876
2018-04-11T05:18:00.000Z,97888
2018-04-11T05:23:00.000Z,97890
2018-04-11T05:28:00.000Z,97901
2018-04-11T05:33:00.000Z,97900
2018-04-11T05:38:00.000Z,97902
2018-04-11T05:43:00.000Z,97908
2018-04-11T05:48:00.000Z,97911
2018-04-11T05:53:00.000Z,97920
2018-04-11T05:58:00.000Z,97923
2018-04-11T06:03:00.000Z,97928
2018-04-11T06:08:00.000Z,97930
2018-04-11T06:13:00.000Z,97931
2018-04-11T06:18:00.000Z,97937
2018-04-11T06:23:00.000Z,97939
2018-04-11T06:28:00.000Z,97939
2018-04-11T06:33:00.000Z,97945
2018-04-11T06:38:00.000Z,97953
2018-04-11T06:43:00.000Z,97950
2018-04-11T06:48:00.000Z,97954
2018-04-11T06:53:00.000Z,97952
2018-04-11T06:58:00.000Z,97952
2018-04-11T07:03:00.000Z,97947
2018-04-11T07:08:00.000Z,97950
2018-04-11T07:14:00.000Z,97956
2018-04-11T07:19:00.000Z,97962
2018-04-11T07:24:00.000Z,97958
2018-04-11T07:29:00.000Z,97965
2018-04-11T07:34:00.000Z,97964
2018-04-11T07:39:00.000Z,97969
2018-04-11T07:44:00.000Z,97967
2018-04-11T07:49:00.000Z,97965
2018-04-11T07:54:00.000Z,97984
2018-04-11T07:59:00.000Z,97986
2018-04-11T08:04:00.000Z,97989
2018-04-11T08:09:00.000Z,98001
2018-04-11T08:14:00.000Z,97996
2018-04-11T08:19:00.000Z,98009
2018-04-11T08:24:00.000Z,98000
2018-04-11T08:29:00.000Z,98013
2018-04-11T08:34:00.000Z,98016
2018-04-11T08:39:00.000Z,98020
2018-04-11T08:44:00.000Z,98023
2018-04-11T08:49:00.000Z,98036
2018-04-11T08:54:00.000Z,98038
2018-04-11T08:59:00.000Z,98037
2018-04-11T09:04:00.000Z,98042
2018-04-11T09:09:00.000Z,98041
2018-04-11T09:14:00.000Z,98055
2018-04-11T09:19:00.000Z,98040
2018-04-11T09:24:00.000Z,98048
2018-04-11T09:29:00.000Z,98046
2018-04-11T09:34:00.000Z,98042
2018-04-11T09:39:00.000Z,98034
2018-04-11T09:44:00.000Z,98035
2018-04-11T09:49:00.000Z,98032
2018-04-11T09:54:00.000Z,98016
2018-04-11T09:59:00.000Z,98021
2018-04-11T10:04:00.000Z,98019
2018-04-11T10:09:00.000Z,98024
2018-04-11T10:14:00.000Z,98019
2018-04-11T10:19:00.000Z,98026
2018-04-11T10:24:00.000Z,98019
2018-04-11T10:29:00.000Z,98013
2018-04-11T10:34:00.000Z,98013
2018-04-11T10:39:00.000Z,98009
2018-04-11T10:44:00.000Z,98011
2018-04-11T10:49:00.000Z,98015
2018-04-11T10:54:00.000Z,98028
2018-04-11T10:59:00.000Z,98008
2018-04-11T11:04:00.000Z,98010
2018-04-11T11:09:00.000Z,97991
2018-04-11T11:14:00.000Z,97987
2018-04-11T11:19:00.000Z,97990
2018-04-11T11:24:00.000Z,97987
2018-04-11T11:29:00.000Z,97985
2018-04-11T11:34:00.000Z,97980
2018-04-11T11:39:00.000Z,97988
2018-04-11T11:44:00.000Z,97977
2018-04-11T11:49:00.000Z,97974
2018-04-11T11:54:00.000Z,97958
2018-04-11T11:59:00.000Z,97960
2018-04-11T12:04:00.000Z,97947
2018-04-11T12:09:00.000Z,97940
2018-04-11T12:14:00.000Z,97937
2018-04-11T12:19:00.000Z,97928
2018-04-11T12:24:00.000Z,97927
2018-04-11T12:29:00.000Z,97917
2018-04-11T12:34:00.000Z,97904
2018-04-11T12:39:00.000Z,97906
2018-04-11T12:44:00.000Z,97909
2018-04-11T12:49:00.000Z,97901
2018-04-11T12:54:00.000Z,97898
2018-04-11T12:59:00.000Z,97903
2018-04-11T13:04:00.000Z,97882
2018-04-11T13:09:00.000Z,97876
2018-04-11T13:15:00.000Z,97874
2018-04-11T13:20:00.000Z,97868
2018-04-11T13:25:00.000Z,97869
2018-04-11T13:30:00.000Z,97872
2018-04-11T13:35:00.000Z,97864
2018-04-11T13:40:00.000Z,97866
2018-04-11T13:45:00.000Z,97874
2018-04-11T13:50:00.000Z,97866
2018-04-11T13:55:00.000Z,97870
2018-04-11T14:00:00.000Z,97871
2018-04-11T14:05:00.000Z,97864
2018-04-11T14:10:00.000Z,97880
2018-04-11T14:15:00.000Z,97866
2018-04-11T14:20:00.000Z,97867
2018-04-11T14:25:00.000Z,97868
2018-04-11T14:30:00.000Z,97870
2018-04-11T14:35:00.000Z,97871
2018-04-11T14:40:00.000Z,97859
2018-04-11T14:45:00.000Z,97848
2018-04-11T14:50:00.000Z,97849
2018-04-11T14:55:00.000Z,97859
2018-04-11T15:00:00.000Z,97856
2018-04-11T15:05:00.000Z,97859
2018-04-11T15:10:00.000Z,97865
2018-04-11T15:15:00.000Z,97843
2018-04-11T15:20:00.000Z,97845
2018-04-11T15:25:00.000Z,97856
2018-04-11T15:30:00.000Z,97859
2018-04-11T15:35:00.000Z,97848
2018-04-11T15:40:00.000Z,97858
2018-04-11T15:45:00.000Z,97855
2018-04-11T15:50:00.000Z,97863
2018-04-11T15:55:00.000Z,97858
2018-04-11T16:00:00.000Z,97857
2018-04-11T16:05:00.000Z,97867
2018-04-11T16:10:00.000Z,97863
2018-04-11T16:15:00.000Z,97865
2018-04-11T16:20:00.000Z,97871
2018-04-11T16:25:00.000Z,97869
2018-04-11T16:30:00.000Z,97867
2018-04-11T16:35:00.000Z,97882
2018-04-11T16:40:00.000Z,97870
2018-04-11T16:45:00.000Z,97873
2018-04-11T16:50:00.000Z,97871
2018-04-11T16:55:00.000Z,97874
2018-04-11T17:00:00.000Z,97881
2018-04-11T17:05:00.000Z,97872
2018-04-11T17:10:00.000Z,97896
2018-04-11T17:15:00.000Z,97887
2018-04-11T17:20:00.000Z,97905
2018-04-11T17:25:00.000Z,97904
2018-04-11T17:30:00.000Z,97919
2018-04-11T17:35:00.000Z,97932
2018-04-11T17:40:00.000Z,97925
2018-04-11T17:45:00.000Z,97930
2018-04-11T17:50:00.000Z,97950
2018-04-11T17:55:00.000Z,97948
2018-04-11T18:00:00.000Z,97947
2018-04-11T18:05:00.000Z,97965
2018-04-11T18:10:00.000Z,97965
2018-04-11T18:15:00.000Z,97965
2018-04-11T18:20:00.000Z,97979
2018-04-11T18:25:00.000Z,97975
2018-04-11T18:30:00.000Z,97981
2018-04-11T18:35:00.000Z,97983
2018-04-11T18:40:00.000Z,97994
2018-04-11T18:45:00.000Z,97995
2018-04-11T18:50:00.000Z,98002
2018-04-11T18:55:00.000Z,97998
2018-04-11T19:00:00.000Z,98002
2018-04-11T19:05:00.000Z,98009
2018-04-11T19:10:00.000Z,98004
2018-04-11T19:16:00.000Z,98012
2018-04-11T19:21:00.000Z,98010
2018-04-11T19:26:00.000Z,98006
2018-04-11T19:31:00.000Z,97999
2018-04-11T19:36:00.000Z,98007
2018-04-11T19:41:00.000Z,98008
2018-04-11T19:46:00.000Z,98007
2018-04-11T19:51:00.000Z,98007
2018-04-11T19:56:00.000Z,98014
2018-04-11T20:01:00.000Z,98011
2018-04-11T20:06:00.000Z,98003
2018-04-11T20:11:00.000Z,98009
2018-04-11T20:16:00.000Z,98015
2018-04-11T20:21:00.000Z,98015
2018-04-11T20:26:00.000Z,98012
2018-04-11T20:31:00.000Z,98008
2018-04-11T20:36:00.000Z,98013
2018-04-11T20:41:00.000Z,98013
2018-04-11T20:46:00.000Z,98008
2018-04-11T20:51:00.000Z,98001
2018-04-11T20:56:00.000Z,98002
2018-04-11T21:01:00.000Z,97995
2018-04-11T21:06:00.000Z,98008
2018-04-11T21:11:00.000Z,98010
2018-04-11T21:16:00.000Z,98010
2018-04-11T21:21:00.000Z,98018
2018-04-11T21:26:00.000Z,98015
2018-04-11T21:31:00.000Z,98007
2018-04-11T21:36:00.000Z,98010
2018-04-11T21:41:00.000Z,98009
2018-04-11T21:46:00.000Z,98015
2018-04-11T21:51:00.000Z,98012
2018-04-11T21:56:00.000Z,98018
2018-04-11T22:01:00.000Z,98014
2018-04-11T22:06:00.000Z,98020
2018-04-11T22:11:00.000Z,98017
2018-04-11T22:16:00.000Z,98017
2018-04-11T22:21:00.000Z,98011
2018-04-11T22:26:00.000Z,98009
2018-04-11T22:31:00.000Z,98005
2018-04-11T22:36:00.000Z,98007
2018-04-11T22:41:00.000Z,98015
2018-04-11T22:46:00.000Z,98005
2018-04-11T22:51:00.000Z,98005
2018-04-11T22:56:00.000Z,98003
2018-04-11T23:01:00.000Z,97992
2018-04-11T23:06:00.000Z,97995
2018-04-11T23:11:00.000Z,97994
2018-04-11T23:16:00.000Z,97992
2018-04-11T23:21:00.000Z,97980
2018-04-11T23:26:00.000Z,97974
2018-04-11T23:31:00.000Z,97978
2018-04-11T23:36:00.000Z,97972
2018-04-11T23:41:00.000Z,97970
2018-04-11T23:46:00.000Z,97967
2018-04-11T23:51:00.000Z,97953
2018-04-11T23:56:00.000Z,97963
